sensor_id;sensor_type;location;lat;lon;timestamp;temperature;humidity
26821;DHT22;37186;51.394;5.454;2022-12-07T00:00:55;8.00;84.20
26821;DHT22;37186;51.394;5.454;2022-12-07T00:04:05;8.00;84.20
26821;DHT22;37186;51.394;5.454;2022-12-07T00:07:06;7.90;84.00
26821;DHT22;37186;51.394;5.454;2022-12-07T00:10:06;7.90;84.10
26821;DHT22;37186;51.394;5.454;2022-12-07T00:13:07;7.90;84.10
26821;DHT22;37186;51.394;5.454;2022-12-07T00:16:18;7.80;84.20
26821;DHT22;37186;51.394;5.454;2022-12-07T00:19:19;7.80;84.20
26821;DHT22;37186;51.394;5.454;2022-12-07T00:22:20;7.90;84.20
26821;DHT22;37186;51.394;5.454;2022-12-07T00:25:20;7.90;84.20
26821;DHT22;37186;51.394;5.454;2022-12-07T00:28:21;7.80;84.10
26821;DHT22;37186;51.394;5.454;2022-12-07T00:31:25;7.80;84.00
26821;DHT22;37186;51.394;5.454;2022-12-07T00:34:25;7.80;84.00
26821;DHT22;37186;51.394;5.454;2022-12-07T00:37:26;7.80;84.00
26821;DHT22;37186;51.394;5.454;2022-12-07T00:40:26;7.80;84.10
26821;DHT22;37186;51.394;5.454;2022-12-07T00:43:27;7.70;84.00
26821;DHT22;37186;51.394;5.454;2022-12-07T00:46:28;7.70;84.00
26821;DHT22;37186;51.394;5.454;2022-12-07T00:49:29;7.70;83.90
26821;DHT22;37186;51.394;5.454;2022-12-07T00:52:30;7.70;84.00
26821;DHT22;37186;51.394;5.454;2022-12-07T00:55:34;7.70;84.00
26821;DHT22;37186;51.394;5.454;2022-12-07T00:58:35;7.70;84.00
26821;DHT22;37186;51.394;5.454;2022-12-07T01:01:36;7.60;83.80
26821;DHT22;37186;51.394;5.454;2022-12-07T01:04:37;7.70;83.90
26821;DHT22;37186;51.394;5.454;2022-12-07T01:07:37;7.60;83.90
26821;DHT22;37186;51.394;5.454;2022-12-07T01:10:38;7.60;83.90
26821;DHT22;37186;51.394;5.454;2022-12-07T01:13:38;7.60;83.90
26821;DHT22;37186;51.394;5.454;2022-12-07T01:16:39;7.60;83.80
26821;DHT22;37186;51.394;5.454;2022-12-07T01:19:40;7.50;83.80
26821;DHT22;37186;51.394;5.454;2022-12-07T01:22:41;7.50;83.80
26821;DHT22;37186;51.394;5.454;2022-12-07T01:25:42;7.50;83.80
26821;DHT22;37186;51.394;5.454;2022-12-07T01:28:43;7.50;83.80
26821;DHT22;37186;51.394;5.454;2022-12-07T01:31:44;7.50;83.80
26821;DHT22;37186;51.394;5.454;2022-12-07T01:34:44;7.50;83.90
26821;DHT22;37186;51.394;5.454;2022-12-07T01:37:47;7.40;83.80
26821;DHT22;37186;51.394;5.454;2022-12-07T01:40:54;7.40;83.80
26821;DHT22;37186;51.394;5.454;2022-12-07T01:47:13;7.40;83.80
26821;DHT22;37186;51.394;5.454;2022-12-07T01:50:14;7.30;83.80
26821;DHT22;37186;51.394;5.454;2022-12-07T01:53:15;7.30;83.80
26821;DHT22;37186;51.394;5.454;2022-12-07T01:56:19;7.30;83.80
26821;DHT22;37186;51.394;5.454;2022-12-07T01:59:23;7.30;83.80
26821;DHT22;37186;51.394;5.454;2022-12-07T02:02:34;7.30;83.90
26821;DHT22;37186;51.394;5.454;2022-12-07T02:05:37;7.30;83.90
26821;DHT22;37186;51.394;5.454;2022-12-07T02:08:38;7.30;84.00
26821;DHT22;37186;51.394;5.454;2022-12-07T02:11:39;7.30;83.90
26821;DHT22;37186;51.394;5.454;2022-12-07T02:14:41;7.30;84.10
26821;DHT22;37186;51.394;5.454;2022-12-07T02:17:54;7.20;83.90
26821;DHT22;37186;51.394;5.454;2022-12-07T02:21:11;7.20;84.00
26821;DHT22;37186;51.394;5.454;2022-12-07T02:27:44;7.20;84.00
26821;DHT22;37186;51.394;5.454;2022-12-07T02:30:47;7.20;84.00
26821;DHT22;37186;51.394;5.454;2022-12-07T02:34:04;7.20;84.00
26821;DHT22;37186;51.394;5.454;2022-12-07T02:37:14;7.20;84.10
26821;DHT22;37186;51.394;5.454;2022-12-07T02:43:31;7.20;84.10
26821;DHT22;37186;51.394;5.454;2022-12-07T02:46:43;7.20;84.10
26821;DHT22;37186;51.394;5.454;2022-12-07T02:49:45;7.20;84.10
26821;DHT22;37186;51.394;5.454;2022-12-07T02:52:46;7.20;84.10
26821;DHT22;37186;51.394;5.454;2022-12-07T02:55:47;7.20;84.10
26821;DHT22;37186;51.394;5.454;2022-12-07T02:59:14;7.20;84.10
26821;DHT22;37186;51.394;5.454;2022-12-07T03:12:17;7.20;84.00
26821;DHT22;37186;51.394;5.454;2022-12-07T03:15:29;7.20;84.00
26821;DHT22;37186;51.394;5.454;2022-12-07T03:18:37;7.30;84.00
26821;DHT22;37186;51.394;5.454;2022-12-07T03:21:42;7.20;84.00
26821;DHT22;37186;51.394;5.454;2022-12-07T03:24:51;7.20;84.00
26821;DHT22;37186;51.394;5.454;2022-12-07T03:27:59;7.20;84.00
26821;DHT22;37186;51.394;5.454;2022-12-07T03:31:09;7.20;84.00
26821;DHT22;37186;51.394;5.454;2022-12-07T03:34:18;7.20;84.00
26821;DHT22;37186;51.394;5.454;2022-12-07T03:41:00;7.20;84.00
26821;DHT22;37186;51.394;5.454;2022-12-07T03:44:01;7.10;84.70
26821;DHT22;37186;51.394;5.454;2022-12-07T03:47:12;7.10;83.90
26821;DHT22;37186;51.394;5.454;2022-12-07T03:53:50;7.10;83.90
26821;DHT22;37186;51.394;5.454;2022-12-07T03:56:54;7.10;83.90
26821;DHT22;37186;51.394;5.454;2022-12-07T03:59:56;7.10;83.90
26821;DHT22;37186;51.394;5.454;2022-12-07T04:02:58;7.10;83.90
26821;DHT22;37186;51.394;5.454;2022-12-07T04:05:59;7.10;83.90
26821;DHT22;37186;51.394;5.454;2022-12-07T04:08:59;7.10;83.90
26821;DHT22;37186;51.394;5.454;2022-12-07T04:12:00;7.10;84.00
26821;DHT22;37186;51.394;5.454;2022-12-07T04:15:00;7.10;84.00
26821;DHT22;37186;51.394;5.454;2022-12-07T04:18:01;7.10;83.90
26821;DHT22;37186;51.394;5.454;2022-12-07T04:21:01;7.00;83.90
26821;DHT22;37186;51.394;5.454;2022-12-07T04:24:03;7.10;84.00
26821;DHT22;37186;51.394;5.454;2022-12-07T04:27:03;7.00;83.90
26821;DHT22;37186;51.394;5.454;2022-12-07T04:30:04;7.00;83.90
26821;DHT22;37186;51.394;5.454;2022-12-07T04:33:05;7.00;83.90
26821;DHT22;37186;51.394;5.454;2022-12-07T04:36:06;7.00;84.00
26821;DHT22;37186;51.394;5.454;2022-12-07T04:39:08;7.00;84.00
26821;DHT22;37186;51.394;5.454;2022-12-07T04:42:08;7.00;84.00
26821;DHT22;37186;51.394;5.454;2022-12-07T04:45:09;7.00;84.10
26821;DHT22;37186;51.394;5.454;2022-12-07T04:48:10;7.10;84.10
26821;DHT22;37186;51.394;5.454;2022-12-07T04:51:10;7.10;84.10
26821;DHT22;37186;51.394;5.454;2022-12-07T04:54:13;7.10;84.10
26821;DHT22;37186;51.394;5.454;2022-12-07T04:57:13;7.10;84.10
26821;DHT22;37186;51.394;5.454;2022-12-07T05:00:14;7.10;84.10
26821;DHT22;37186;51.394;5.454;2022-12-07T05:03:14;7.10;84.10
26821;DHT22;37186;51.394;5.454;2022-12-07T05:06:15;7.10;84.10
26821;DHT22;37186;51.394;5.454;2022-12-07T05:09:15;7.10;84.20
26821;DHT22;37186;51.394;5.454;2022-12-07T05:12:16;7.10;84.20
26821;DHT22;37186;51.394;5.454;2022-12-07T05:15:17;7.10;84.10
26821;DHT22;37186;51.394;5.454;2022-12-07T05:18:17;7.10;84.20
26821;DHT22;37186;51.394;5.454;2022-12-07T05:21:18;7.10;84.20
26821;DHT22;37186;51.394;5.454;2022-12-07T05:24:19;7.10;84.20
26821;DHT22;37186;51.394;5.454;2022-12-07T05:27:19;7.10;84.20
26821;DHT22;37186;51.394;5.454;2022-12-07T05:30:20;7.20;84.20
26821;DHT22;37186;51.394;5.454;2022-12-07T05:33:20;7.20;84.20
26821;DHT22;37186;51.394;5.454;2022-12-07T05:36:21;7.20;84.20
26821;DHT22;37186;51.394;5.454;2022-12-07T05:39:22;7.20;84.20
26821;DHT22;37186;51.394;5.454;2022-12-07T05:42:22;7.20;84.30
26821;DHT22;37186;51.394;5.454;2022-12-07T05:45:23;7.20;84.30
26821;DHT22;37186;51.394;5.454;2022-12-07T05:48:24;7.20;85.00
26821;DHT22;37186;51.394;5.454;2022-12-07T05:51:25;7.20;84.20
26821;DHT22;37186;51.394;5.454;2022-12-07T05:54:25;7.20;84.20
26821;DHT22;37186;51.394;5.454;2022-12-07T05:57:26;7.20;84.20
26821;DHT22;37186;51.394;5.454;2022-12-07T06:00:26;7.20;84.20
26821;DHT22;37186;51.394;5.454;2022-12-07T06:03:27;7.20;84.10
26821;DHT22;37186;51.394;5.454;2022-12-07T06:06:27;7.20;84.10
26821;DHT22;37186;51.394;5.454;2022-12-07T06:09:29;7.20;84.10
26821;DHT22;37186;51.394;5.454;2022-12-07T06:12:29;7.20;84.10
26821;DHT22;37186;51.394;5.454;2022-12-07T06:15:38;7.20;84.10
26821;DHT22;37186;51.394;5.454;2022-12-07T06:18:39;7.20;84.00
26821;DHT22;37186;51.394;5.454;2022-12-07T06:21:39;7.20;84.10
26821;DHT22;37186;51.394;5.454;2022-12-07T06:24:40;7.20;84.00
26821;DHT22;37186;51.394;5.454;2022-12-07T06:27:41;7.20;84.00
26821;DHT22;37186;51.394;5.454;2022-12-07T06:30:41;7.20;84.00
26821;DHT22;37186;51.394;5.454;2022-12-07T06:33:42;7.20;84.00
26821;DHT22;37186;51.394;5.454;2022-12-07T06:36:43;7.10;83.90
26821;DHT22;37186;51.394;5.454;2022-12-07T06:39:44;7.10;83.90
26821;DHT22;37186;51.394;5.454;2022-12-07T06:42:45;7.10;83.90
26821;DHT22;37186;51.394;5.454;2022-12-07T06:45:46;7.10;83.90
26821;DHT22;37186;51.394;5.454;2022-12-07T06:48:47;7.10;83.80
26821;DHT22;37186;51.394;5.454;2022-12-07T06:51:47;7.00;83.80
26821;DHT22;37186;51.394;5.454;2022-12-07T06:54:48;7.00;83.80
26821;DHT22;37186;51.394;5.454;2022-12-07T06:57:48;7.00;83.80
26821;DHT22;37186;51.394;5.454;2022-12-07T07:00:49;7.00;83.80
26821;DHT22;37186;51.394;5.454;2022-12-07T07:03:50;6.90;83.80
26821;DHT22;37186;51.394;5.454;2022-12-07T07:06:51;6.90;83.80
26821;DHT22;37186;51.394;5.454;2022-12-07T07:09:51;6.80;83.70
26821;DHT22;37186;51.394;5.454;2022-12-07T07:12:52;6.90;83.80
26821;DHT22;37186;51.394;5.454;2022-12-07T07:15:53;6.80;83.80
26821;DHT22;37186;51.394;5.454;2022-12-07T07:18:53;6.80;83.80
26821;DHT22;37186;51.394;5.454;2022-12-07T07:21:54;6.80;83.80
26821;DHT22;37186;51.394;5.454;2022-12-07T07:24:54;6.80;83.80
26821;DHT22;37186;51.394;5.454;2022-12-07T07:27:55;6.80;83.80
26821;DHT22;37186;51.394;5.454;2022-12-07T07:30:55;6.80;83.80
26821;DHT22;37186;51.394;5.454;2022-12-07T07:33:56;6.70;83.80
26821;DHT22;37186;51.394;5.454;2022-12-07T07:36:56;6.70;83.90
26821;DHT22;37186;51.394;5.454;2022-12-07T07:39:57;6.80;83.90
26821;DHT22;37186;51.394;5.454;2022-12-07T07:42:57;6.70;84.60
26821;DHT22;37186;51.394;5.454;2022-12-07T07:45:58;6.70;83.80
26821;DHT22;37186;51.394;5.454;2022-12-07T07:48:59;6.70;83.80
26821;DHT22;37186;51.394;5.454;2022-12-07T07:51:59;6.70;83.80
26821;DHT22;37186;51.394;5.454;2022-12-07T07:55:00;6.70;84.60
26821;DHT22;37186;51.394;5.454;2022-12-07T07:58:00;6.70;83.80
26821;DHT22;37186;51.394;5.454;2022-12-07T08:01:06;6.70;83.80
26821;DHT22;37186;51.394;5.454;2022-12-07T08:04:06;6.60;83.80
26821;DHT22;37186;51.394;5.454;2022-12-07T08:07:07;6.60;83.80
26821;DHT22;37186;51.394;5.454;2022-12-07T08:10:10;6.60;83.90
26821;DHT22;37186;51.394;5.454;2022-12-07T08:13:11;6.60;83.90
26821;DHT22;37186;51.394;5.454;2022-12-07T08:16:11;6.70;84.00
26821;DHT22;37186;51.394;5.454;2022-12-07T08:19:12;6.60;83.90
26821;DHT22;37186;51.394;5.454;2022-12-07T08:22:12;6.60;83.90
26821;DHT22;37186;51.394;5.454;2022-12-07T08:25:13;6.70;84.00
26821;DHT22;37186;51.394;5.454;2022-12-07T08:28:13;6.70;84.00
26821;DHT22;37186;51.394;5.454;2022-12-07T08:31:17;6.70;84.00
26821;DHT22;37186;51.394;5.454;2022-12-07T08:34:18;6.70;84.10
26821;DHT22;37186;51.394;5.454;2022-12-07T08:37:19;6.70;84.00
26821;DHT22;37186;51.394;5.454;2022-12-07T08:40:19;6.70;84.10
26821;DHT22;37186;51.394;5.454;2022-12-07T08:43:21;6.70;84.10
26821;DHT22;37186;51.394;5.454;2022-12-07T08:46:36;6.70;84.20
26821;DHT22;37186;51.394;5.454;2022-12-07T08:49:41;6.70;84.20
26821;DHT22;37186;51.394;5.454;2022-12-07T08:52:44;6.70;84.10
26821;DHT22;37186;51.394;5.454;2022-12-07T08:55:46;6.70;84.20
26821;DHT22;37186;51.394;5.454;2022-12-07T08:58:47;6.80;84.20
26821;DHT22;37186;51.394;5.454;2022-12-07T09:01:48;6.80;84.30
26821;DHT22;37186;51.394;5.454;2022-12-07T09:04:48;6.80;84.20
26821;DHT22;37186;51.394;5.454;2022-12-07T09:07:51;6.80;84.30
26821;DHT22;37186;51.394;5.454;2022-12-07T09:10:54;6.90;84.40
26821;DHT22;37186;51.394;5.454;2022-12-07T09:13:55;6.90;84.40
26821;DHT22;37186;51.394;5.454;2022-12-07T09:17:09;6.90;84.40
26821;DHT22;37186;51.394;5.454;2022-12-07T09:20:10;6.90;84.40
26821;DHT22;37186;51.394;5.454;2022-12-07T09:23:12;6.90;84.40
26821;DHT22;37186;51.394;5.454;2022-12-07T09:26:12;6.90;84.40
26821;DHT22;37186;51.394;5.454;2022-12-07T09:29:13;7.00;84.50
26821;DHT22;37186;51.394;5.454;2022-12-07T09:32:13;7.00;84.40
26821;DHT22;37186;51.394;5.454;2022-12-07T09:35:14;7.00;84.50
26821;DHT22;37186;51.394;5.454;2022-12-07T09:38:15;7.10;84.50
26821;DHT22;37186;51.394;5.454;2022-12-07T09:41:16;7.10;84.50
26821;DHT22;37186;51.394;5.454;2022-12-07T09:44:23;7.10;84.50
26821;DHT22;37186;51.394;5.454;2022-12-07T09:47:25;7.10;84.50
26821;DHT22;37186;51.394;5.454;2022-12-07T09:50:28;7.20;84.60
26821;DHT22;37186;51.394;5.454;2022-12-07T09:53:30;7.20;84.70
26821;DHT22;37186;51.394;5.454;2022-12-07T09:56:33;7.20;84.60
26821;DHT22;37186;51.394;5.454;2022-12-07T09:59:34;7.20;84.60
26821;DHT22;37186;51.394;5.454;2022-12-07T10:02:37;7.20;84.60
26821;DHT22;37186;51.394;5.454;2022-12-07T10:05:42;7.20;85.40
26821;DHT22;37186;51.394;5.454;2022-12-07T10:08:44;7.30;84.60
26821;DHT22;37186;51.394;5.454;2022-12-07T10:12:09;7.30;84.60
26821;DHT22;37186;51.394;5.454;2022-12-07T10:15:10;7.30;84.60
26821;DHT22;37186;51.394;5.454;2022-12-07T10:21:28;7.30;84.50
26821;DHT22;37186;51.394;5.454;2022-12-07T10:24:29;7.30;84.60
26821;DHT22;37186;51.394;5.454;2022-12-07T10:27:31;7.40;84.60
26821;DHT22;37186;51.394;5.454;2022-12-07T10:30:33;7.40;84.50
26821;DHT22;37186;51.394;5.454;2022-12-07T10:33:37;7.40;84.60
26821;DHT22;37186;51.394;5.454;2022-12-07T10:36:38;7.40;84.60
26821;DHT22;37186;51.394;5.454;2022-12-07T10:39:47;7.40;84.60
26821;DHT22;37186;51.394;5.454;2022-12-07T10:43:00;7.40;84.60
26821;DHT22;37186;51.394;5.454;2022-12-07T10:56:04;7.40;84.70
26821;DHT22;37186;51.394;5.454;2022-12-07T10:59:33;7.50;84.80
26821;DHT22;37186;51.394;5.454;2022-12-07T11:16:16;7.60;84.80
26821;DHT22;37186;51.394;5.454;2022-12-07T11:23:01;7.60;84.90
26821;DHT22;37186;51.394;5.454;2022-12-07T11:26:09;7.60;84.90
26821;DHT22;37186;51.394;5.454;2022-12-07T11:33:04;7.70;85.00
26821;DHT22;37186;51.394;5.454;2022-12-07T11:36:21;7.70;85.10
26821;DHT22;37186;51.394;5.454;2022-12-07T11:39:35;7.80;85.20
26821;DHT22;37186;51.394;5.454;2022-12-07T11:42:44;7.80;85.20
26821;DHT22;37186;51.394;5.454;2022-12-07T11:45:58;7.90;85.30
26821;DHT22;37186;51.394;5.454;2022-12-07T11:49:20;7.90;85.30
26821;DHT22;37186;51.394;5.454;2022-12-07T11:52:47;8.00;85.20
26821;DHT22;37186;51.394;5.454;2022-12-07T11:55:54;8.00;85.30
26821;DHT22;37186;51.394;5.454;2022-12-07T12:02:15;8.00;85.20
26821;DHT22;37186;51.394;5.454;2022-12-07T12:05:26;8.10;85.20
26821;DHT22;37186;51.394;5.454;2022-12-07T12:12:19;8.20;85.20
26821;DHT22;37186;51.394;5.454;2022-12-07T12:21:41;8.20;84.90
26821;DHT22;37186;51.394;5.454;2022-12-07T12:24:44;8.20;85.00
26821;DHT22;37186;51.394;5.454;2022-12-07T12:27:48;8.20;85.00
26821;DHT22;37186;51.394;5.454;2022-12-07T12:34:31;8.30;85.00
26821;DHT22;37186;51.394;5.454;2022-12-07T12:37:42;8.30;85.00
26821;DHT22;37186;51.394;5.454;2022-12-07T12:40:43;8.30;84.90
26821;DHT22;37186;51.394;5.454;2022-12-07T12:43:51;8.30;84.80
26821;DHT22;37186;51.394;5.454;2022-12-07T12:46:57;8.30;84.90
26821;DHT22;37186;51.394;5.454;2022-12-07T12:50:22;8.30;84.80
26821;DHT22;37186;51.394;5.454;2022-12-07T12:53:25;8.40;84.80
26821;DHT22;37186;51.394;5.454;2022-12-07T13:02:54;8.40;85.10
26821;DHT22;37186;51.394;5.454;2022-12-07T13:09:29;8.40;85.00
26821;DHT22;37186;51.394;5.454;2022-12-07T13:12:31;8.40;85.20
26821;DHT22;37186;51.394;5.454;2022-12-07T13:18:41;8.50;85.10
26821;DHT22;37186;51.394;5.454;2022-12-07T13:21:43;8.50;85.10
26821;DHT22;37186;51.394;5.454;2022-12-07T13:24:44;8.50;85.10
26821;DHT22;37186;51.394;5.454;2022-12-07T13:27:51;8.50;85.10
26821;DHT22;37186;51.394;5.454;2022-12-07T13:33:58;8.60;85.10
26821;DHT22;37186;51.394;5.454;2022-12-07T13:37:01;8.60;85.10
26821;DHT22;37186;51.394;5.454;2022-12-07T13:40:19;8.60;85.00
26821;DHT22;37186;51.394;5.454;2022-12-07T13:43:20;8.60;84.90
26821;DHT22;37186;51.394;5.454;2022-12-07T13:46:29;8.60;84.90
26821;DHT22;37186;51.394;5.454;2022-12-07T13:49:36;8.60;84.90
26821;DHT22;37186;51.394;5.454;2022-12-07T13:52:43;8.60;84.80
26821;DHT22;37186;51.394;5.454;2022-12-07T13:55:46;8.60;84.70
26821;DHT22;37186;51.394;5.454;2022-12-07T13:58:46;8.60;84.70
26821;DHT22;37186;51.394;5.454;2022-12-07T14:01:48;8.60;84.70
26821;DHT22;37186;51.394;5.454;2022-12-07T14:04:51;8.60;84.70
26821;DHT22;37186;51.394;5.454;2022-12-07T14:10:59;8.60;84.70
26821;DHT22;37186;51.394;5.454;2022-12-07T14:14:02;8.60;84.70
26821;DHT22;37186;51.394;5.454;2022-12-07T14:17:16;8.60;84.70
26821;DHT22;37186;51.394;5.454;2022-12-07T14:20:37;8.60;84.70
26821;DHT22;37186;51.394;5.454;2022-12-07T14:23:39;8.60;84.70
26821;DHT22;37186;51.394;5.454;2022-12-07T14:26:40;8.60;84.70
26821;DHT22;37186;51.394;5.454;2022-12-07T14:29:40;8.60;84.70
26821;DHT22;37186;51.394;5.454;2022-12-07T14:32:41;8.60;84.70
26821;DHT22;37186;51.394;5.454;2022-12-07T14:35:43;8.60;84.70
26821;DHT22;37186;51.394;5.454;2022-12-07T14:38:43;8.60;84.70
26821;DHT22;37186;51.394;5.454;2022-12-07T14:41:44;8.60;84.70
26821;DHT22;37186;51.394;5.454;2022-12-07T14:44:50;8.60;84.70
26821;DHT22;37186;51.394;5.454;2022-12-07T14:47:51;8.60;84.70
26821;DHT22;37186;51.394;5.454;2022-12-07T14:50:52;8.60;84.70
26821;DHT22;37186;51.394;5.454;2022-12-07T14:53:53;8.60;84.70
26821;DHT22;37186;51.394;5.454;2022-12-07T14:56:54;8.50;84.60
26821;DHT22;37186;51.394;5.454;2022-12-07T14:59:55;8.50;84.60
26821;DHT22;37186;51.394;5.454;2022-12-07T15:02:56;8.50;84.60
26821;DHT22;37186;51.394;5.454;2022-12-07T15:05:57;8.50;84.50
26821;DHT22;37186;51.394;5.454;2022-12-07T15:08:57;8.50;84.50
26821;DHT22;37186;51.394;5.454;2022-12-07T15:11:58;8.50;84.50
26821;DHT22;37186;51.394;5.454;2022-12-07T15:14:58;8.50;84.50
26821;DHT22;37186;51.394;5.454;2022-12-07T15:18:01;8.50;84.40
26821;DHT22;37186;51.394;5.454;2022-12-07T15:21:02;8.50;84.40
26821;DHT22;37186;51.394;5.454;2022-12-07T15:24:02;8.40;84.30
26821;DHT22;37186;51.394;5.454;2022-12-07T15:27:03;8.40;84.20
26821;DHT22;37186;51.394;5.454;2022-12-07T15:30:04;8.40;84.30
26821;DHT22;37186;51.394;5.454;2022-12-07T15:33:05;8.40;84.40
26821;DHT22;37186;51.394;5.454;2022-12-07T15:36:06;8.30;84.30
26821;DHT22;37186;51.394;5.454;2022-12-07T15:39:06;8.40;84.30
26821;DHT22;37186;51.394;5.454;2022-12-07T15:42:07;8.30;84.30
26821;DHT22;37186;51.394;5.454;2022-12-07T15:45:08;8.30;84.20
26821;DHT22;37186;51.394;5.454;2022-12-07T15:48:09;8.30;84.30
26821;DHT22;37186;51.394;5.454;2022-12-07T15:51:09;8.30;84.30
26821;DHT22;37186;51.394;5.454;2022-12-07T15:54:23;8.20;84.20
26821;DHT22;37186;51.394;5.454;2022-12-07T15:57:23;8.20;84.30
26821;DHT22;37186;51.394;5.454;2022-12-07T16:00:24;8.20;84.30
26821;DHT22;37186;51.394;5.454;2022-12-07T16:03:26;8.20;84.30
26821;DHT22;37186;51.394;5.454;2022-12-07T16:06:27;8.10;84.20
26821;DHT22;37186;51.394;5.454;2022-12-07T16:09:27;8.10;84.30
26821;DHT22;37186;51.394;5.454;2022-12-07T16:12:28;8.10;84.30
26821;DHT22;37186;51.394;5.454;2022-12-07T16:15:28;8.10;84.30
26821;DHT22;37186;51.394;5.454;2022-12-07T16:18:29;8.10;84.40
26821;DHT22;37186;51.394;5.454;2022-12-07T16:21:30;8.10;84.30
26821;DHT22;37186;51.394;5.454;2022-12-07T16:24:31;8.10;84.40
26821;DHT22;37186;51.394;5.454;2022-12-07T16:27:31;8.10;84.40
26821;DHT22;37186;51.394;5.454;2022-12-07T16:30:32;8.10;84.40
26821;DHT22;37186;51.394;5.454;2022-12-07T16:33:34;8.10;84.40
26821;DHT22;37186;51.394;5.454;2022-12-07T16:36:35;8.10;84.40
26821;DHT22;37186;51.394;5.454;2022-12-07T16:39:36;8.10;84.40
26821;DHT22;37186;51.394;5.454;2022-12-07T16:42:37;8.10;84.40
26821;DHT22;37186;51.394;5.454;2022-12-07T16:45:37;8.10;84.40
26821;DHT22;37186;51.394;5.454;2022-12-07T16:48:38;8.00;84.60
26821;DHT22;37186;51.394;5.454;2022-12-07T16:51:39;8.00;84.40
26821;DHT22;37186;51.394;5.454;2022-12-07T16:54:41;8.00;84.40
26821;DHT22;37186;51.394;5.454;2022-12-07T16:57:42;8.00;84.40
26821;DHT22;37186;51.394;5.454;2022-12-07T17:00:43;8.00;84.30
26821;DHT22;37186;51.394;5.454;2022-12-07T17:03:45;8.00;84.40
26821;DHT22;37186;51.394;5.454;2022-12-07T17:06:46;8.00;84.30
26821;DHT22;37186;51.394;5.454;2022-12-07T17:09:46;8.00;84.40
26821;DHT22;37186;51.394;5.454;2022-12-07T17:12:47;8.00;84.40
26821;DHT22;37186;51.394;5.454;2022-12-07T17:15:55;8.00;84.30
26821;DHT22;37186;51.394;5.454;2022-12-07T17:18:56;8.00;84.40
26821;DHT22;37186;51.394;5.454;2022-12-07T17:21:57;8.00;84.40
26821;DHT22;37186;51.394;5.454;2022-12-07T17:24:57;8.00;84.40
26821;DHT22;37186;51.394;5.454;2022-12-07T17:27:58;8.00;84.40
26821;DHT22;37186;51.394;5.454;2022-12-07T17:30:59;8.00;84.40
26821;DHT22;37186;51.394;5.454;2022-12-07T17:34:00;8.00;84.40
26821;DHT22;37186;51.394;5.454;2022-12-07T17:37:00;8.00;84.40
26821;DHT22;37186;51.394;5.454;2022-12-07T17:40:01;8.00;84.40
26821;DHT22;37186;51.394;5.454;2022-12-07T17:43:02;8.00;84.40
26821;DHT22;37186;51.394;5.454;2022-12-07T17:46:07;8.00;84.40
26821;DHT22;37186;51.394;5.454;2022-12-07T17:49:08;8.00;84.40
26821;DHT22;37186;51.394;5.454;2022-12-07T17:52:09;8.00;84.40
26821;DHT22;37186;51.394;5.454;2022-12-07T17:55:28;7.90;84.40
26821;DHT22;37186;51.394;5.454;2022-12-07T17:58:28;7.90;84.30
26821;DHT22;37186;51.394;5.454;2022-12-07T18:01:29;7.90;84.30
26821;DHT22;37186;51.394;5.454;2022-12-07T18:04:29;7.90;84.30
26821;DHT22;37186;51.394;5.454;2022-12-07T18:07:30;7.90;84.30
26821;DHT22;37186;51.394;5.454;2022-12-07T18:10:31;7.90;84.30
26821;DHT22;37186;51.394;5.454;2022-12-07T18:13:33;7.90;84.30
26821;DHT22;37186;51.394;5.454;2022-12-07T18:16:37;7.90;84.30
26821;DHT22;37186;51.394;5.454;2022-12-07T18:19:38;7.90;84.30
26821;DHT22;37186;51.394;5.454;2022-12-07T18:22:38;7.90;84.30
26821;DHT22;37186;51.394;5.454;2022-12-07T18:25:39;7.90;84.30
26821;DHT22;37186;51.394;5.454;2022-12-07T18:28:43;7.90;84.30
26821;DHT22;37186;51.394;5.454;2022-12-07T18:31:45;7.80;84.30
26821;DHT22;37186;51.394;5.454;2022-12-07T18:34:48;7.80;84.20
26821;DHT22;37186;51.394;5.454;2022-12-07T18:37:49;7.80;84.30
26821;DHT22;37186;51.394;5.454;2022-12-07T18:40:49;7.80;84.20
26821;DHT22;37186;51.394;5.454;2022-12-07T18:43:50;7.80;84.20
26821;DHT22;37186;51.394;5.454;2022-12-07T18:46:50;7.80;84.30
26821;DHT22;37186;51.394;5.454;2022-12-07T18:49:51;7.80;84.30
26821;DHT22;37186;51.394;5.454;2022-12-07T18:52:51;7.80;84.30
26821;DHT22;37186;51.394;5.454;2022-12-07T18:56:00;7.80;84.30
26821;DHT22;37186;51.394;5.454;2022-12-07T18:59:02;7.80;84.30
26821;DHT22;37186;51.394;5.454;2022-12-07T19:02:22;7.70;84.20
26821;DHT22;37186;51.394;5.454;2022-12-07T19:05:22;7.80;84.30
26821;DHT22;37186;51.394;5.454;2022-12-07T19:08:24;7.80;84.30
26821;DHT22;37186;51.394;5.454;2022-12-07T19:11:30;7.70;84.20
26821;DHT22;37186;51.394;5.454;2022-12-07T19:14:49;7.70;84.20
26821;DHT22;37186;51.394;5.454;2022-12-07T19:17:49;7.70;84.20
26821;DHT22;37186;51.394;5.454;2022-12-07T19:20:50;7.70;84.20
26821;DHT22;37186;51.394;5.454;2022-12-07T19:23:50;7.70;84.20
26821;DHT22;37186;51.394;5.454;2022-12-07T19:26:51;7.70;84.10
26821;DHT22;37186;51.394;5.454;2022-12-07T19:29:52;7.70;84.20
26821;DHT22;37186;51.394;5.454;2022-12-07T19:32:53;7.70;84.20
26821;DHT22;37186;51.394;5.454;2022-12-07T19:35:53;7.70;84.20
26821;DHT22;37186;51.394;5.454;2022-12-07T19:38:54;7.70;84.20
26821;DHT22;37186;51.394;5.454;2022-12-07T19:41:55;7.70;84.20
26821;DHT22;37186;51.394;5.454;2022-12-07T19:44:56;7.70;84.20
26821;DHT22;37186;51.394;5.454;2022-12-07T19:47:56;7.70;84.20
26821;DHT22;37186;51.394;5.454;2022-12-07T19:51:04;7.70;84.20
26821;DHT22;37186;51.394;5.454;2022-12-07T19:54:04;7.70;84.10
26821;DHT22;37186;51.394;5.454;2022-12-07T19:57:06;7.70;84.20
26821;DHT22;37186;51.394;5.454;2022-12-07T20:00:09;7.70;84.20
26821;DHT22;37186;51.394;5.454;2022-12-07T20:03:09;7.60;84.10
26821;DHT22;37186;51.394;5.454;2022-12-07T20:06:15;7.60;84.20
26821;DHT22;37186;51.394;5.454;2022-12-07T20:09:16;7.60;84.20
26821;DHT22;37186;51.394;5.454;2022-12-07T20:12:17;7.60;84.20
26821;DHT22;37186;51.394;5.454;2022-12-07T20:15:37;7.60;84.10
26821;DHT22;37186;51.394;5.454;2022-12-07T20:18:37;7.60;84.20
26821;DHT22;37186;51.394;5.454;2022-12-07T20:21:39;7.50;84.20
26821;DHT22;37186;51.394;5.454;2022-12-07T20:24:39;7.60;83.50
26821;DHT22;37186;51.394;5.454;2022-12-07T20:27:40;7.60;84.20
26821;DHT22;37186;51.394;5.454;2022-12-07T20:30:48;7.50;84.10
26821;DHT22;37186;51.394;5.454;2022-12-07T20:33:50;7.50;84.10
26821;DHT22;37186;51.394;5.454;2022-12-07T20:36:52;7.50;84.10
26821;DHT22;37186;51.394;5.454;2022-12-07T20:39:53;7.50;84.10
26821;DHT22;37186;51.394;5.454;2022-12-07T20:42:55;7.50;84.10
26821;DHT22;37186;51.394;5.454;2022-12-07T20:45:55;7.50;84.10
26821;DHT22;37186;51.394;5.454;2022-12-07T20:48:59;7.50;84.10
26821;DHT22;37186;51.394;5.454;2022-12-07T20:52:00;7.50;84.10
26821;DHT22;37186;51.394;5.454;2022-12-07T20:55:01;7.50;84.20
26821;DHT22;37186;51.394;5.454;2022-12-07T20:58:01;7.40;84.10
26821;DHT22;37186;51.394;5.454;2022-12-07T21:01:02;7.50;84.10
26821;DHT22;37186;51.394;5.454;2022-12-07T21:04:03;7.50;84.20
26821;DHT22;37186;51.394;5.454;2022-12-07T21:07:04;7.40;84.10
26821;DHT22;37186;51.394;5.454;2022-12-07T21:10:05;7.50;84.20